Main page
METAR-TAF:

METAR-TAF

Airports :

Niederstetten, Germany

Niederstetten Air Base

latitude: 49-24N, longitude: 009-58E, elevation: 468 m

Current weather observation

The report was made 29 minutes ago, at 01:20 UTC
Wind 2 kt from the East
Temperature 10°C
Humidity 93%
Pressure 1020 hPa
Visibility 10 km or more
Scattered clouds at a height of 4500 ft
Broken clouds at a height of 9000 ft

METAR: ETHN 260120Z 10002KT 9999 SCT045 BKN090 10/09 Q1020 BLU

Time: 03:49 (01:49 UTC)

Forecast

The report was made 11 hours and 3 minutes ago, at 14:46 UTC
Forecast valid from 25 at 14 UTC to 25 at 23 UTC
Wind 7 kt from the East
Visibility: 1500 m
Scattered clouds at a height of 3000 ft

TAF: ETHN 251446Z 2514/2523 09007KT 9999 NSW SCT030 CANCEL 1500

Weather observations and forecasts of more than 4000 airports (METAR and TAF reports).

The available stations are represented by yellow and red dots on the map.

Hover mouse over dot to see the name of the station.

Then click to see weather observations and forecasts.

To change the map : click on the green buttons with a black cross to zoom in, on the green button with a dash to zoom out, or on the green arrows for adjacent maps.


METAR-TAF: